Palisades, New York
Current Conditions -  °F | °C
As of 3:56 AM on Monday 24 Nov 2014 (Local Time) from KHPN Reporting Station
Moderate Rain Moderate Rain  
Wind Chill: 55°   Ceiling: 200
Heat Index: 55°   Visibility: 2mi
Dew Point: 54°   Wind: 14mph
Humidity: 96%   Direction: 130°SE
Pressure: 29.78"   Gusts: NA
Location:  41.01°N, 73.91°W
Report Text: KHPN 240856Z 13012KT 2SM RA BR VV002 13/12 A2978 RMK AO2 SLP086 P0032 60055 T01280122 58056
Loading
Personal Weather Stations






























Interactive Weather Map New forecast layout! Learn more

10-Day Weather Forecast

Advertisements
Track Severe Weather on mobile